Southwest Florida International Airport
KRSW : rendu visible

Aérodrome :











RETROUVEZ-NOUS SUR...

 
LOGIN :

S'inscrire | Disclaimer

   EN    FR    IT 

 









Légende :    VFR   VFR Marginal   IFR   IFR Intensif   IFR Très Intensif
Visi : 
Plafond : 
>= 8 km
>= 3000ft
5 à 8 km
1000 à 3000 ft
1500m à 5 km
500 à 1000 ft
800 à 1500m
200 à 500 ft
< 800m
< 200 ft
Symboles :   Orages  Brouillard  Fortes neiges  Fortes précipitations  Vent > 20 kt







- Altitude de l'aérodrome : 30 ft
- Code IATA : RSW


KRSW - Southwest Florida International

DERNIER METAR :
  • 180653Z AUTO 06004KT 10SM CLR 25/23 A2993 RMK AO2 SLP134 T02500228

METARs EXPIRÉS :
  • 180553Z AUTO 05006KT 10SM CLR 26/22 A2994 RMK AO2 SLP136 T02610222 10294 20261 58004
  • 180453Z AUTO 04005KT 10SM CLR 27/22 A2994 RMK AO2 SLP137 T02670222 403440244

TAF KRSW
Valide du 18 à 06h jusqu'au 19 à 06h UTC


180521Z 1806/1906 04003KT P6SM SKC
FM181700 06009G16KT P6SM FEW200
FM182000 06010G17KT P6SM VCTS BKN050CB
FM190000 07008KT P6SM SCT070
Pas de NOTAMs connus pour ce terrain.



MET'MAP, la Météo Aéronautique d'un coup d'oeil ! - Copyright ORBIFLY Décembre 2007 - Disclaimer

ORBIFLY MET'MAP TEAM :

Programmation & Développement : Alexandra Zaïnal
Conception & Développement : Baudouin d'Aumeries
Co-Programmation & Développement : Marc-Olivier Méhu
Soutien technique & logistique : Manuel Goepfert

Contact : metmap@orbifly.com




SOURCES & CREDITS :

   NOAA       Earth
Advisory